createdAt,value
2023-03-06T00:00:26.308Z,6.90
2023-03-06T00:02:53.329Z,7.33
2023-03-06T00:05:19.666Z,6.33
2023-03-06T00:07:46.003Z,6.50
2023-03-06T00:10:14.515Z,6.60
2023-03-06T00:12:40.895Z,6.90
2023-03-06T00:15:08.467Z,6.30
2023-03-06T00:17:34.797Z,7.07
2023-03-06T00:20:01.693Z,7.57
2023-03-06T00:22:28.020Z,6.90
2023-03-06T00:24:54.197Z,7.10
2023-03-06T00:27:20.483Z,8.07
2023-03-06T00:29:48.344Z,8.97
2023-03-06T00:32:14.660Z,9.90
2023-03-06T00:34:41.138Z,9.80
2023-03-06T00:37:08.092Z,10.03
2023-03-06T00:39:34.396Z,10.13
2023-03-06T00:42:00.662Z,10.07
2023-03-06T00:44:27.009Z,9.93
2023-03-06T00:46:53.281Z,10.10
2023-03-06T00:49:19.517Z,9.57
2023-03-06T00:51:45.850Z,9.50
2023-03-06T00:54:12.781Z,9.93
2023-03-06T00:56:38.956Z,10.27
2023-03-06T00:59:05.291Z,9.77
2023-03-06T01:01:31.440Z,10.27
2023-03-06T01:03:57.889Z,10.83
2023-03-06T01:06:24.198Z,11.47
2023-03-06T01:08:50.394Z,11.70
2023-03-06T01:11:17.162Z,11.40
2023-03-06T01:13:43.828Z,11.53
2023-03-06T01:16:12.108Z,11.13
2023-03-06T01:18:38.296Z,11.80
2023-03-06T01:21:05.425Z,11.70
2023-03-06T01:23:31.820Z,12.47
2023-03-06T01:25:58.349Z,12.00
2023-03-06T01:28:25.374Z,11.73
2023-03-06T01:30:51.613Z,12.27
2023-03-06T01:33:18.195Z,11.57
2023-03-06T01:35:44.445Z,11.50
2023-03-06T01:38:10.779Z,12.27
2023-03-06T01:40:38.108Z,12.20
2023-03-06T01:43:12.100Z,12.80
2023-03-06T01:46:27.330Z,13.97
2023-03-06T01:48:56.825Z,12.87
2023-03-06T01:51:25.616Z,12.90
2023-03-06T01:53:52.208Z,13.93
2023-03-06T01:56:18.761Z,12.97
2023-03-06T01:58:50.870Z,14.13
2023-03-06T02:01:17.620Z,13.83
2023-03-06T02:03:45.347Z,13.77
2023-03-06T02:06:12.587Z,13.53
2023-03-06T02:08:39.250Z,13.37
2023-03-06T02:11:11.506Z,13.40
2023-03-06T02:13:38.072Z,14.07
2023-03-06T02:16:04.908Z,13.90
2023-03-06T02:18:31.225Z,14.13
2023-03-06T02:20:59.401Z,13.80
2023-03-06T02:23:32.868Z,13.77
2023-03-06T02:26:00.750Z,13.97
2023-03-06T02:28:26.874Z,14.57
2023-03-06T02:30:54.892Z,14.47
2023-03-06T02:33:23.123Z,14.00
2023-03-06T02:35:51.019Z,15.13
2023-03-06T02:38:18.535Z,14.53
2023-03-06T02:40:47.368Z,14.00
2023-03-06T02:43:15.165Z,14.83
2023-03-06T02:45:44.670Z,15.27
2023-03-06T02:48:11.287Z,13.97
2023-03-06T02:50:37.528Z,15.27
2023-03-06T02:53:03.912Z,15.37
2023-03-06T02:55:30.105Z,15.70
2023-03-06T02:57:56.259Z,14.90
2023-03-06T03:00:23.247Z,15.90
2023-03-06T03:02:49.546Z,15.17
2023-03-06T03:05:15.903Z,15.10
2023-03-06T03:07:42.498Z,15.83
2023-03-06T03:10:09.664Z,15.23
2023-03-06T03:12:35.987Z,14.67
2023-03-06T03:15:02.297Z,15.60
2023-03-06T03:17:29.201Z,16.80
2023-03-06T03:19:55.407Z,16.20
2023-03-06T03:22:21.656Z,15.47
2023-03-06T03:24:47.884Z,15.53
2023-03-06T03:27:14.495Z,15.50
2023-03-06T03:29:41.991Z,15.73
2023-03-06T03:32:08.300Z,16.57
2023-03-06T03:34:35.301Z,16.17
2023-03-06T03:37:01.501Z,14.60
2023-03-06T03:39:27.721Z,14.83
2023-03-06T03:41:53.915Z,13.60
2023-03-06T03:44:20.323Z,15.27
2023-03-06T03:46:46.484Z,14.63
2023-03-06T03:49:12.700Z,15.00
2023-03-06T03:51:39.534Z,15.63
2023-03-06T03:54:06.165Z,13.37
2023-03-06T03:56:33.006Z,13.87
2023-03-06T03:58:59.325Z,14.40
2023-03-06T04:01:26.029Z,14.50
2023-03-06T04:03:52.230Z,14.37
2023-03-06T04:06:18.798Z,13.83
2023-03-06T04:08:45.688Z,14.17
2023-03-06T04:11:11.919Z,14.37
2023-03-06T04:13:38.199Z,14.87
2023-03-06T04:16:04.775Z,14.80
2023-03-06T04:18:34.626Z,15.17
2023-03-06T04:21:00.805Z,15.03
2023-03-06T04:23:27.131Z,15.97
2023-03-06T04:25:54.134Z,15.00
2023-03-06T04:28:20.473Z,15.47
2023-03-06T04:30:47.649Z,16.00
2023-03-06T04:33:13.833Z,15.10
2023-03-06T04:35:40.025Z,15.87
2023-03-06T04:38:06.295Z,15.87
2023-03-06T04:40:33.864Z,16.37
2023-03-06T04:43:01.474Z,16.00
2023-03-06T04:45:29.435Z,15.80
2023-03-06T04:47:57.320Z,16.77
2023-03-06T04:50:28.133Z,16.63
2023-03-06T04:52:54.383Z,16.23
2023-03-06T04:55:20.751Z,17.90
2023-03-06T04:57:47.361Z,17.73
2023-03-06T05:00:16.537Z,17.57
2023-03-06T05:02:43.357Z,17.53
2023-03-06T05:05:10.389Z,17.27
2023-03-06T05:07:36.737Z,18.57
2023-03-06T05:10:03.418Z,18.53
2023-03-06T05:12:29.656Z,18.27
2023-03-06T05:14:56.131Z,19.00
2023-03-06T05:17:23.127Z,17.17
2023-03-06T05:19:49.340Z,19.33
2023-03-06T05:22:15.619Z,19.07
2023-03-06T05:24:41.833Z,19.27
2023-03-06T05:27:08.303Z,18.77
2023-03-06T05:29:34.761Z,16.03
2023-03-06T05:32:01.116Z,20.00
2023-03-06T05:34:28.085Z,18.23
2023-03-06T05:36:54.284Z,18.20
2023-03-06T05:39:20.563Z,19.40
2023-03-06T05:41:46.920Z,19.90
2023-03-06T05:44:13.124Z,19.20
2023-03-06T05:46:39.333Z,18.87
2023-03-06T05:49:05.561Z,19.37
2023-03-06T05:51:32.417Z,19.17
2023-03-06T05:54:03.462Z,19.13
2023-03-06T05:56:29.693Z,20.57
2023-03-06T05:58:56.010Z,19.33
2023-03-06T06:01:24.510Z,18.83
2023-03-06T06:03:51.115Z,19.93
2023-03-06T06:06:17.817Z,18.43
2023-03-06T06:08:44.717Z,19.60
2023-03-06T06:11:11.907Z,18.97
2023-03-06T06:13:38.593Z,19.57
2023-03-06T06:16:08.862Z,18.73
2023-03-06T06:18:35.136Z,19.27
2023-03-06T06:21:04.676Z,19.20
2023-03-06T06:23:30.888Z,18.67
2023-03-06T06:25:59.675Z,18.70
2023-03-06T06:28:26.010Z,19.00
2023-03-06T06:30:52.367Z,19.13
2023-03-06T06:33:21.587Z,18.80
2023-03-06T06:35:48.100Z,18.30
2023-03-06T06:38:14.337Z,17.57
2023-03-06T06:40:40.917Z,17.40
2023-03-06T06:43:07.807Z,16.70
2023-03-06T06:45:34.264Z,17.63
2023-03-06T06:48:00.960Z,17.43
2023-03-06T06:50:27.318Z,18.33
2023-03-06T06:52:53.532Z,17.13
2023-03-06T06:55:19.761Z,16.97
2023-03-06T06:57:46.080Z,17.87
2023-03-06T07:00:14.749Z,18.40
2023-03-06T07:02:41.115Z,18.23
2023-03-06T07:05:08.063Z,17.93
2023-03-06T07:07:35.741Z,18.17
2023-03-06T07:10:02.676Z,18.23
2023-03-06T07:12:31.609Z,19.60
2023-03-06T07:14:57.958Z,19.47
2023-03-06T07:17:24.960Z,18.50
2023-03-06T07:19:51.166Z,19.33
2023-03-06T07:22:17.382Z,19.50
2023-03-06T07:24:43.501Z,19.13
2023-03-06T07:27:09.719Z,18.03
2023-03-06T07:29:36.093Z,17.10
2023-03-06T07:32:02.441Z,18.37
2023-03-06T07:34:29.384Z,17.53
2023-03-06T07:36:55.600Z,17.67
2023-03-06T07:39:22.042Z,17.87
2023-03-06T07:41:48.192Z,16.13
2023-03-06T07:44:14.370Z,17.00
2023-03-06T07:46:40.835Z,17.77
2023-03-06T07:49:07.231Z,17.13
2023-03-06T07:51:34.047Z,16.90
2023-03-06T07:54:00.201Z,17.83
2023-03-06T07:56:26.384Z,17.13
2023-03-06T07:58:52.608Z,17.73
2023-03-06T08:01:20.874Z,17.57
2023-03-06T08:03:49.192Z,17.97
2023-03-06T08:06:17.033Z,17.90
2023-03-06T08:08:45.183Z,17.53
2023-03-06T08:11:12.905Z,17.50
2023-03-06T08:13:39.226Z,17.97
2023-03-06T08:16:06.373Z,17.40
2023-03-06T08:18:32.840Z,18.67
2023-03-06T08:21:03.269Z,18.60
2023-03-06T08:23:29.584Z,18.70
2023-03-06T08:25:57.049Z,19.47
2023-03-06T08:28:23.251Z,21.00
2023-03-06T08:30:49.539Z,21.77
2023-03-06T08:33:15.730Z,22.27
2023-03-06T08:35:41.952Z,22.03
2023-03-06T08:38:08.206Z,22.83
2023-03-06T08:40:34.364Z,22.97
2023-03-06T08:43:01.238Z,24.03
2023-03-06T08:45:27.439Z,24.67
2023-03-06T08:47:53.632Z,24.37
2023-03-06T08:50:19.767Z,25.27
2023-03-06T08:52:46.157Z,25.00
2023-03-06T08:55:14.171Z,24.00
2023-03-06T08:57:41.255Z,23.10
2023-03-06T09:00:10.314Z,24.47
2023-03-06T09:02:36.644Z,22.73
2023-03-06T09:05:04.497Z,22.53
2023-03-06T09:07:30.685Z,22.50
2023-03-06T09:09:57.151Z,21.77
2023-03-06T09:12:23.494Z,21.40
2023-03-06T09:14:49.899Z,22.53
2023-03-06T09:17:16.807Z,22.30
2023-03-06T09:19:43.088Z,22.63
2023-03-06T09:22:09.388Z,22.30
2023-03-06T09:24:36.069Z,22.67
2023-03-06T09:27:02.380Z,23.37
2023-03-06T09:29:28.619Z,22.43
2023-03-06T09:31:54.815Z,21.67
2023-03-06T09:34:21.599Z,22.27
2023-03-06T09:36:56.661Z,21.30
2023-03-06T09:39:24.501Z,22.13
2023-03-06T09:41:51.125Z,21.40
2023-03-06T09:44:19.959Z,21.33
2023-03-06T09:46:58.414Z,21.33
2023-03-06T09:49:42.736Z,22.77
2023-03-06T09:52:23.146Z,21.73
2023-03-06T09:54:53.353Z,21.70
2023-03-06T09:57:22.826Z,21.43
2023-03-06T09:59:53.427Z,22.37
2023-03-06T10:02:24.704Z,23.83
2023-03-06T10:04:54.412Z,22.33
2023-03-06T10:07:22.912Z,21.17
2023-03-06T10:09:52.125Z,21.60
2023-03-06T10:12:25.054Z,21.67
2023-03-06T10:15:00.303Z,20.97
2023-03-06T10:17:31.265Z,20.70
2023-03-06T10:19:58.774Z,20.37
2023-03-06T10:22:28.373Z,22.10
2023-03-06T10:24:57.199Z,21.83
2023-03-06T10:27:33.785Z,20.77
2023-03-06T10:30:05.969Z,19.50
2023-03-06T10:32:48.276Z,20.10
2023-03-06T10:35:18.852Z,18.37
2023-03-06T10:37:45.092Z,20.33
2023-03-06T10:40:15.829Z,19.57
2023-03-06T10:42:42.041Z,18.43
2023-03-06T10:45:10.504Z,19.10
2023-03-06T10:47:37.702Z,17.57
2023-03-06T10:50:17.136Z,16.63
2023-03-06T10:52:43.909Z,16.67
2023-03-06T10:55:24.857Z,15.40
2023-03-06T10:57:51.091Z,14.93
2023-03-06T11:00:27.396Z,14.87
2023-03-06T11:03:05.561Z,15.40
2023-03-06T11:05:31.911Z,14.83
2023-03-06T11:08:00.059Z,15.60
2023-03-06T11:10:26.822Z,15.93
2023-03-06T11:12:57.913Z,16.60
2023-03-06T11:15:24.618Z,16.17
2023-03-06T11:17:54.945Z,16.27
2023-03-06T11:20:23.007Z,16.57
2023-03-06T11:22:52.257Z,17.33
2023-03-06T11:25:20.920Z,16.83
2023-03-06T11:27:54.307Z,17.80
2023-03-06T11:30:23.820Z,17.93
2023-03-06T11:32:53.212Z,17.63
2023-03-06T11:35:21.913Z,18.03
2023-03-06T11:37:53.142Z,17.10
2023-03-06T11:40:24.351Z,16.83
2023-03-06T11:42:57.053Z,16.40
2023-03-06T11:45:26.306Z,17.73
2023-03-06T11:47:59.379Z,16.43
2023-03-06T11:50:30.888Z,16.97
2023-03-06T11:52:58.875Z,16.80
2023-03-06T11:55:36.505Z,15.93
2023-03-06T11:58:20.680Z,17.13
2023-03-06T12:00:52.699Z,16.90
2023-03-06T12:03:45.255Z,17.03
2023-03-06T12:06:18.294Z,18.03
2023-03-06T12:08:52.265Z,18.53
2023-03-06T12:11:23.097Z,17.90
2023-03-06T12:14:09.525Z,17.30
2023-03-06T12:16:47.346Z,16.73
2023-03-06T12:19:23.367Z,16.83
2023-03-06T12:21:57.669Z,16.97
2023-03-06T12:24:51.990Z,17.53
2023-03-06T12:27:25.366Z,17.07
2023-03-06T12:30:05.019Z,16.77
2023-03-06T12:32:40.651Z,16.17
2023-03-06T12:35:21.747Z,16.63
2023-03-06T12:37:56.967Z,16.10
2023-03-06T12:40:35.576Z,15.93
2023-03-06T12:43:17.807Z,16.87
2023-03-06T12:45:44.482Z,15.37
2023-03-06T12:48:15.856Z,16.00
2023-03-06T12:50:43.714Z,15.97
2023-03-06T12:53:14.097Z,15.93
2023-03-06T12:55:42.202Z,16.87
2023-03-06T12:58:34.801Z,16.40
2023-03-06T13:01:05.114Z,16.30
2023-03-06T13:03:38.534Z,16.67
2023-03-06T13:06:27.746Z,16.00
2023-03-06T13:09:15.090Z,16.97
2023-03-06T13:12:01.879Z,15.60
2023-03-06T13:14:35.835Z,15.40
2023-03-06T13:17:34.713Z,16.70
2023-03-06T13:20:35.375Z,14.80
2023-03-06T13:23:42.232Z,16.17
2023-03-06T13:26:10.260Z,16.23
2023-03-06T13:28:44.330Z,14.70
2023-03-06T13:31:24.887Z,15.73
2023-03-06T13:33:55.426Z,14.77
2023-03-06T13:36:27.463Z,14.27
2023-03-06T13:39:01.467Z,14.97
2023-03-06T13:41:42.672Z,14.13
2023-03-06T13:44:37.070Z,13.93
2023-03-06T13:47:05.722Z,13.80
2023-03-06T13:49:32.744Z,12.47
2023-03-06T13:52:08.522Z,12.70
2023-03-06T13:54:46.819Z,11.97
2023-03-06T13:57:39.617Z,11.63
2023-03-06T14:00:44.969Z,12.30
2023-03-06T14:03:50.338Z,12.13
2023-03-06T14:06:56.030Z,12.17
2023-03-06T14:09:26.699Z,13.43
2023-03-06T14:11:55.893Z,14.50
2023-03-06T14:14:31.165Z,14.03
2023-03-06T14:16:58.140Z,13.50
2023-03-06T14:19:24.472Z,13.57
2023-03-06T14:21:55.316Z,11.90
2023-03-06T14:24:31.193Z,10.73
2023-03-06T14:26:57.570Z,7.60
2023-03-06T14:29:25.144Z,7.30
2023-03-06T14:31:53.197Z,9.27
2023-03-06T14:34:21.248Z,10.53
2023-03-06T14:36:49.810Z,10.40
2023-03-06T14:39:21.180Z,12.10
2023-03-06T14:41:48.225Z,11.70
2023-03-06T14:44:17.223Z,13.30
2023-03-06T14:46:44.006Z,12.13
2023-03-06T14:49:11.746Z,14.90
2023-03-06T14:51:42.058Z,14.30
2023-03-06T14:54:12.934Z,15.03
2023-03-06T14:56:41.211Z,15.97
2023-03-06T14:59:11.768Z,14.53
2023-03-06T15:01:40.791Z,15.77
2023-03-06T15:04:12.602Z,15.90
2023-03-06T15:06:41.095Z,16.00
2023-03-06T15:09:14.071Z,15.87
2023-03-06T15:12:01.728Z,16.73
2023-03-06T15:14:35.012Z,16.30
2023-03-06T15:17:23.678Z,15.80
2023-03-06T15:19:51.173Z,16.50
2023-03-06T15:22:29.589Z,16.43
2023-03-06T15:25:18.487Z,16.07
2023-03-06T15:27:47.976Z,15.47
2023-03-06T15:30:22.552Z,15.40
2023-03-06T15:32:48.846Z,15.40
2023-03-06T15:35:25.995Z,15.57
2023-03-06T15:37:52.500Z,14.20
2023-03-06T15:40:20.455Z,15.20
2023-03-06T15:42:48.692Z,14.70
2023-03-06T15:45:18.070Z,13.30
2023-03-06T15:47:45.810Z,15.13
2023-03-06T15:50:16.279Z,13.93
2023-03-06T15:52:42.541Z,13.70
2023-03-06T15:55:10.876Z,13.60
2023-03-06T15:57:37.422Z,14.27
2023-03-06T16:00:21.622Z,14.03
2023-03-06T16:02:53.672Z,14.67
2023-03-06T16:05:20.822Z,14.77
2023-03-06T16:07:47.921Z,14.03
2023-03-06T16:10:16.098Z,13.07
2023-03-06T16:12:43.211Z,14.53
2023-03-06T16:15:17.099Z,13.73
2023-03-06T16:17:43.310Z,13.27
2023-03-06T16:20:16.729Z,12.57
2023-03-06T16:22:44.098Z,12.53
2023-03-06T16:25:10.862Z,12.73
2023-03-06T16:27:37.216Z,11.73
2023-03-06T16:30:04.035Z,11.77
2023-03-06T16:32:30.483Z,11.93
2023-03-06T16:34:56.828Z,11.27
2023-03-06T16:37:23.746Z,11.83
2023-03-06T16:39:49.981Z,11.90
2023-03-06T16:42:16.864Z,11.23
2023-03-06T16:44:43.136Z,12.40
2023-03-06T16:47:11.152Z,11.80
2023-03-06T16:49:37.382Z,11.77
2023-03-06T16:52:04.069Z,11.50
2023-03-06T16:54:30.942Z,11.23
2023-03-06T16:56:57.184Z,11.93
2023-03-06T16:59:24.149Z,11.67
2023-03-06T17:01:50.323Z,12.37
2023-03-06T17:04:16.803Z,12.23
2023-03-06T17:06:43.018Z,12.37
2023-03-06T17:09:10.023Z,12.87
2023-03-06T17:11:37.686Z,12.20
2023-03-06T17:14:03.918Z,12.33
2023-03-06T17:16:30.194Z,11.90
2023-03-06T17:18:57.372Z,13.33
2023-03-06T17:21:25.786Z,13.13
2023-03-06T17:23:52.133Z,12.50
2023-03-06T17:26:18.642Z,13.13
2023-03-06T17:28:45.787Z,13.60
2023-03-06T17:31:13.800Z,13.57
2023-03-06T17:33:40.269Z,15.17
2023-03-06T17:36:07.394Z,12.90
2023-03-06T17:38:33.600Z,13.50
2023-03-06T17:41:02.494Z,12.70
2023-03-06T17:43:29.024Z,12.50
2023-03-06T17:45:56.319Z,12.07
2023-03-06T17:48:22.496Z,12.67
2023-03-06T17:50:52.894Z,12.73
2023-03-06T17:53:19.224Z,13.00
2023-03-06T17:55:45.597Z,12.67
2023-03-06T17:58:12.443Z,12.60
2023-03-06T18:00:39.463Z,13.07
2023-03-06T18:03:06.304Z,12.33
2023-03-06T18:05:32.590Z,13.00
2023-03-06T18:07:58.790Z,13.43
2023-03-06T18:10:25.045Z,14.43
2023-03-06T18:12:51.377Z,13.10
2023-03-06T18:15:17.740Z,13.13
2023-03-06T18:17:44.169Z,13.57
2023-03-06T18:20:11.870Z,13.63
2023-03-06T18:22:38.056Z,14.00
2023-03-06T18:25:05.357Z,14.07
2023-03-06T18:27:32.448Z,13.83
2023-03-06T18:29:58.755Z,13.93
2023-03-06T18:32:25.158Z,13.27
2023-03-06T18:34:51.593Z,13.20
2023-03-06T18:37:18.534Z,14.57
2023-03-06T18:39:44.863Z,13.90
2023-03-06T18:42:11.100Z,13.93
2023-03-06T18:44:37.843Z,12.83
2023-03-06T18:47:04.625Z,13.63
2023-03-06T18:49:30.858Z,13.40
2023-03-06T18:51:57.032Z,14.53
2023-03-06T18:54:24.527Z,13.50
2023-03-06T18:56:52.479Z,15.17
2023-03-06T18:59:19.447Z,13.63
2023-03-06T19:01:46.688Z,13.33
2023-03-06T19:04:13.236Z,13.20
2023-03-06T19:06:40.171Z,13.77
2023-03-06T19:09:07.024Z,14.10
2023-03-06T19:11:34.313Z,13.10
2023-03-06T19:14:00.675Z,13.03
2023-03-06T19:16:29.319Z,12.67
2023-03-06T19:18:56.488Z,13.13
2023-03-06T19:21:24.027Z,12.30
2023-03-06T19:23:50.239Z,13.13
2023-03-06T19:26:17.832Z,13.77
2023-03-06T19:28:45.592Z,13.00
2023-03-06T19:31:13.313Z,13.23
2023-03-06T19:33:40.515Z,13.13
2023-03-06T19:36:08.783Z,13.13
2023-03-06T19:38:35.063Z,13.37
2023-03-06T19:41:01.548Z,12.93
2023-03-06T19:43:28.428Z,13.53
2023-03-06T19:45:55.869Z,12.87
2023-03-06T19:48:22.871Z,14.00
2023-03-06T19:50:49.585Z,13.10
2023-03-06T19:53:16.084Z,12.80
2023-03-06T19:55:42.803Z,12.40
2023-03-06T19:58:10.369Z,14.17
2023-03-06T20:00:37.354Z,12.20
2023-03-06T20:03:04.682Z,13.03
2023-03-06T20:05:31.194Z,11.87
2023-03-06T20:07:57.867Z,12.67
2023-03-06T20:10:24.126Z,12.53
2023-03-06T20:12:50.275Z,12.40
2023-03-06T20:15:18.218Z,12.77
2023-03-06T20:17:44.423Z,12.50
2023-03-06T20:20:12.630Z,12.93
2023-03-06T20:22:38.942Z,14.23
2023-03-06T20:25:05.814Z,13.30
2023-03-06T20:27:32.249Z,14.03
2023-03-06T20:29:58.636Z,12.80
2023-03-06T20:32:25.123Z,14.37
2023-03-06T20:34:51.441Z,12.83
2023-03-06T20:37:18.456Z,13.47
2023-03-06T20:39:44.693Z,13.03
2023-03-06T20:42:10.856Z,12.97
2023-03-06T20:44:37.291Z,12.97
2023-03-06T20:47:03.548Z,14.10
2023-03-06T20:49:29.872Z,13.10
2023-03-06T20:55:38.774Z,12.83
2023-03-06T20:58:05.117Z,13.50
2023-03-06T21:00:31.707Z,13.57
2023-03-06T21:02:57.878Z,14.33
2023-03-06T21:05:24.188Z,14.60
2023-03-06T21:07:51.817Z,14.43
2023-03-06T21:10:18.223Z,14.60
2023-03-06T21:12:45.151Z,14.97
2023-03-06T21:15:12.200Z,14.47
2023-03-06T21:17:38.399Z,14.70
2023-03-06T21:20:06.237Z,14.87
2023-03-06T21:22:32.700Z,13.77
2023-03-06T21:24:58.868Z,14.90
2023-03-06T21:27:25.320Z,16.17
2023-03-06T21:29:52.192Z,15.83
2023-03-06T21:32:18.519Z,15.93
2023-03-06T21:34:44.708Z,16.17
2023-03-06T21:37:10.964Z,16.70
2023-03-06T21:39:37.727Z,16.13
2023-03-06T21:42:04.427Z,16.30
2023-03-06T21:44:31.086Z,15.57
2023-03-06T21:46:58.057Z,16.53
2023-03-06T21:49:25.375Z,17.50
2023-03-06T21:51:51.889Z,17.37
2023-03-06T21:54:18.232Z,17.40
2023-03-06T21:56:44.458Z,17.10
2023-03-06T21:59:10.674Z,17.93
2023-03-06T22:01:36.852Z,18.67
2023-03-06T22:04:03.932Z,18.00
2023-03-06T22:06:30.813Z,18.40
2023-03-06T22:08:58.150Z,17.50
2023-03-06T22:11:25.678Z,18.03
2023-03-06T22:13:52.664Z,18.23
2023-03-06T22:16:19.937Z,17.30
2023-03-06T22:18:47.143Z,17.47
2023-03-06T22:21:15.245Z,18.30
2023-03-06T22:23:41.949Z,17.17
2023-03-06T22:26:11.550Z,17.07
2023-03-06T22:28:38.122Z,18.67
2023-03-06T22:31:05.999Z,16.77
2023-03-06T22:33:32.201Z,16.73
2023-03-06T22:36:05.422Z,15.80
2023-03-06T22:38:32.576Z,16.27
2023-03-06T22:40:59.413Z,15.47
2023-03-06T22:43:25.594Z,15.43
2023-03-06T22:45:52.285Z,15.07
2023-03-06T22:48:18.674Z,16.07
2023-03-06T22:50:44.957Z,15.07
2023-03-06T22:53:11.174Z,14.97
2023-03-06T22:55:38.066Z,14.97
2023-03-06T22:58:04.298Z,14.00
2023-03-06T23:00:30.470Z,15.23
2023-03-06T23:02:56.687Z,14.20
2023-03-06T23:05:22.896Z,14.50
2023-03-06T23:07:49.087Z,13.47
2023-03-06T23:10:15.376Z,13.67
2023-03-06T23:12:43.358Z,14.30
2023-03-06T23:15:10.275Z,13.07
2023-03-06T23:17:36.603Z,12.90
2023-03-06T23:20:05.428Z,12.37
2023-03-06T23:22:32.067Z,12.60
2023-03-06T23:24:58.666Z,12.07
2023-03-06T23:27:24.861Z,12.47
2023-03-06T23:29:54.527Z,12.40
2023-03-06T23:32:20.864Z,11.63
2023-03-06T23:34:47.665Z,12.30
2023-03-06T23:37:13.859Z,12.97
2023-03-06T23:39:40.218Z,12.53
2023-03-06T23:42:06.604Z,13.70
2023-03-06T23:44:34.075Z,14.07
2023-03-06T23:47:00.957Z,12.60
2023-03-06T23:49:27.082Z,12.67
2023-03-06T23:51:53.226Z,12.27
2023-03-06T23:54:19.488Z,11.90
2023-03-06T23:56:45.942Z,12.33
2023-03-06T23:59:12.194Z,10.70
